Time;durP1;ratioP1;P1;durP2;ratioP2;P2;SDS_P1;SDS_P2;PMS_P1;PMS_P2;Temp;Humidity;BMP_temperature;BMP_pressure;BME280_temperature;BME280_humidity;BME280_pressure;Samples;Min_cycle;Max_cycle;Signal;HPM_P1;HPM_P2
2023/04/23 00:01:58;;;;;;;7.88;4.40;;;;;14.50;95717.00;;;;8329279;28;20229;-71
2023/04/23 00:06:09;;;;;;;5.57;4.40;;;;;14.50;95719.00;;;;8317946;28;20259;-71
2023/04/23 00:10:13;;;;;;;19.60;11.25;;;;;14.50;95719.00;;;;8321146;28;20203;-71
2023/04/23 00:14:20;;;;;;;9.98;7.25;;;;;14.40;95726.00;;;;8321434;28;20254;-71
2023/04/23 00:18:25;;;;;;;10.18;4.47;;;;;14.30;95722.00;;;;8322471;28;20194;-71
2023/04/23 00:22:32;;;;;;;7.50;4.82;;;;;14.30;95714.00;;;;8326847;28;20570;-71
2023/04/23 00:26:36;;;;;;;8.27;4.65;;;;;14.20;95702.00;;;;8322110;28;20224;-71
2023/04/23 00:30:44;;;;;;;7.32;4.95;;;;;14.10;95702.00;;;;8310684;28;20204;-71
2023/04/23 00:34:48;;;;;;;6.50;4.72;;;;;14.00;95699.00;;;;8328716;28;20258;-71
2023/04/23 00:38:54;;;;;;;5.28;4.25;;;;;13.90;95703.00;;;;8329300;28;20208;-71
2023/04/23 00:42:58;;;;;;;5.93;4.32;;;;;13.70;95695.00;;;;8338817;28;20609;-71
2023/04/23 00:47:09;;;;;;;6.07;4.35;;;;;13.60;95697.00;;;;8336156;28;20235;-71
2023/04/23 00:51:13;;;;;;;6.22;4.22;;;;;13.60;95690.00;;;;8337277;28;20200;-71
2023/04/23 00:55:19;;;;;;;5.30;4.30;;;;;13.50;95692.00;;;;8325137;28;20200;-71
2023/04/23 00:59:23;;;;;;;4.88;4.00;;;;;13.40;95685.00;;;;8325589;28;20208;-70
2023/04/23 01:03:30;;;;;;;4.95;4.50;;;;;13.40;95684.00;;;;8330189;28;20225;-71
2023/04/23 01:07:35;;;;;;;6.25;4.72;;;;;13.40;95682.00;;;;8338595;28;20662;-71
2023/04/23 01:11:47;;;;;;;7.55;4.60;;;;;13.40;95686.00;;;;8333851;28;20208;-71
2023/04/23 01:15:52;;;;;;;7.05;5.03;;;;;13.40;95681.00;;;;8334080;28;20203;-71
2023/04/23 01:19:55;;;;;;;11.18;4.95;;;;;13.40;95691.00;;;;8319974;28;20639;-70
2023/04/23 01:24:00;;;;;;;6.45;4.68;;;;;13.40;95691.00;;;;8322924;28;20205;-71
2023/04/23 01:28:06;;;;;;;5.78;4.65;;;;;13.40;95690.00;;;;8339468;28;20241;-71
2023/04/23 01:32:10;;;;;;;7.47;5.32;;;;;13.50;95693.00;;;;8328637;28;20720;-71
2023/04/23 01:36:14;;;;;;;9.75;4.60;;;;;13.50;95689.00;;;;8335506;28;20204;-71
2023/04/23 01:40:18;;;;;;;6.95;5.05;;;;;13.50;95695.00;;;;8325430;28;20194;-72
2023/04/23 01:44:24;;;;;;;5.85;4.85;;;;;13.50;95688.00;;;;8337635;28;20797;-71
2023/04/23 01:48:30;;;;;;;6.50;4.85;;;;;13.50;95699.00;;;;8329473;28;20262;-71
2023/04/23 01:52:33;;;;;;;7.35;5.15;;;;;13.50;95700.00;;;;8328226;28;20865;-70
2023/04/23 01:56:40;;;;;;;6.20;4.75;;;;;13.50;95704.00;;;;8329184;28;20703;-71
2023/04/23 02:00:43;;;;;;;7.97;5.07;;;;;13.50;95707.00;;;;8329580;28;20201;-70
2023/04/23 02:04:49;;;;;;;5.53;4.63;;;;;13.60;95708.00;;;;8306693;28;20257;-71
2023/04/23 02:08:53;;;;;;;7.70;4.60;;;;;13.60;95708.00;;;;8331151;28;20232;-74
2023/04/23 02:12:58;;;;;;;8.05;5.07;;;;;13.40;95694.00;;;;8333850;28;20263;-75
2023/04/23 02:17:06;;;;;;;11.77;5.47;;;;;13.30;95689.00;;;;8331293;28;20738;-72
2023/04/23 02:21:10;;;;;;;7.22;4.45;;;;;13.20;95691.00;;;;8333837;28;20986;-74
2023/04/23 02:25:14;;;;;;;6.03;4.82;;;;;13.20;95700.00;;;;8333083;28;20210;-73
2023/04/23 02:29:19;;;;;;;8.05;4.78;;;;;13.10;95696.00;;;;8325116;28;20282;-75
2023/04/23 02:33:23;;;;;;;9.82;5.22;;;;;13.00;95704.00;;;;8324123;28;20194;-73
2023/04/23 02:37:29;;;;;;;7.65;5.03;;;;;12.90;95698.00;;;;8322285;28;20251;-78
2023/04/23 02:41:32;;;;;;;10.57;5.20;;;;;12.90;95697.00;;;;8328433;28;20294;-78
2023/04/23 02:45:40;;;;;;;10.00;5.28;;;;;12.70;95702.00;;;;8335723;28;20586;-77
2023/04/23 02:49:44;;;;;;;13.38;5.15;;;;;12.70;95698.00;;;;8328530;28;20254;-78
2023/04/23 02:53:47;;;;;;;7.70;5.18;;;;;12.60;95699.00;;;;8324422;28;20732;-78
2023/04/23 02:57:51;;;;;;;8.93;5.63;;;;;12.50;95705.00;;;;8338408;28;20200;-78
2023/04/23 03:01:55;;;;;;;10.85;5.32;;;;;12.50;95706.00;;;;8354508;23;20273;-77
2023/04/23 03:06:01;;;;;;;9.30;5.97;;;;;12.40;95699.00;;;;8325793;28;20262;-77
2023/04/23 03:10:10;;;;;;;7.40;5.25;;;;;12.50;95709.00;;;;8321655;28;20334;-76
2023/04/23 03:14:14;;;;;;;9.30;5.90;;;;;12.40;95701.00;;;;8315924;28;20199;-75
2023/04/23 03:18:20;;;;;;;9.32;4.82;;;;;12.40;95710.00;;;;8320703;28;20210;-75
2023/04/23 03:22:23;;;;;;;10.55;5.40;;;;;12.40;95708.00;;;;8321105;28;20715;-76
2023/04/23 03:26:26;;;;;;;9.85;5.10;;;;;12.50;95707.00;;;;8304374;28;20282;-76
2023/04/23 03:30:30;;;;;;;6.75;5.07;;;;;12.40;95706.00;;;;8322378;28;20236;-76
2023/04/23 03:34:37;;;;;;;8.93;5.00;;;;;12.40;95711.00;;;;8321909;28;20200;-75
2023/04/23 03:38:41;;;;;;;6.45;4.78;;;;;12.30;95717.00;;;;8321974;28;20268;-75
2023/04/23 03:42:46;;;;;;;8.15;4.90;;;;;12.30;95711.00;;;;8321189;28;20205;-76
2023/04/23 03:46:56;;;;;;;7.88;4.95;;;;;12.20;95720.00;;;;8321068;28;20204;-76
2023/04/23 03:51:07;;;;;;;6.72;4.78;;;;;12.20;95715.00;;;;8316160;28;20842;-76
2023/04/23 03:55:13;;;;;;;7.50;4.90;;;;;12.30;95717.00;;;;8316902;28;20283;-76
2023/04/23 03:59:16;;;;;;;7.68;4.25;;;;;12.30;95726.00;;;;8320027;28;20207;-75
2023/04/23 04:03:19;;;;;;;6.38;4.22;;;;;12.40;95717.00;;;;8320049;28;20229;-76
2023/04/23 04:07:27;;;;;;;6.57;4.07;;;;;12.50;95721.00;;;;8318121;28;20206;-75
2023/04/23 04:11:31;;;;;;;5.60;4.00;;;;;12.70;95716.00;;;;8319228;28;20262;-76
2023/04/23 04:15:34;;;;;;;3.83;3.10;;;;;12.80;95725.00;;;;8319097;28;20365;-76
2023/04/23 04:19:38;;;;;;;8.45;3.78;;;;;12.90;95722.00;;;;8322195;28;20208;-76
2023/04/23 04:23:42;;;;;;;6.60;3.45;;;;;13.10;95729.00;;;;8321906;28;20868;-76
2023/04/23 04:27:45;;;;;;;5.90;3.17;;;;;13.20;95727.00;;;;8301509;28;20259;-76
2023/04/23 04:31:51;;;;;;;9.90;3.33;;;;;13.30;95726.00;;;;8321406;28;20201;-76
2023/04/23 04:36:08;;;;;;;4.95;3.20;;;;;13.30;95727.00;;;;8298723;28;20224;-75
2023/04/23 04:40:15;;;;;;;5.45;3.08;;;;;13.40;95727.00;;;;8318667;28;20234;-75
2023/04/23 04:44:21;;;;;;;4.93;3.00;;;;;13.50;95729.00;;;;8319843;28;20199;-76
2023/04/23 04:48:24;;;;;;;5.10;2.95;;;;;13.60;95728.00;;;;8319279;28;20224;-76
2023/04/23 04:52:27;;;;;;;7.32;3.08;;;;;13.70;95732.00;;;;8320316;28;20192;-76
2023/04/23 04:56:34;;;;;;;3.58;3.08;;;;;13.70;95740.00;;;;8317130;28;20200;-76
2023/04/23 05:00:37;;;;;;;3.17;2.60;;;;;13.80;95742.00;;;;8319521;28;20228;-76
2023/04/23 05:04:42;;;;;;;4.40;3.00;;;;;13.90;95745.00;;;;8316428;28;20236;-75
2023/04/23 05:08:49;;;;;;;5.07;3.10;;;;;14.00;95749.00;;;;8319198;28;20263;-76
2023/04/23 05:12:59;;;;;;;4.30;2.53;;;;;14.10;95746.00;;;;8318397;28;20276;-76
2023/04/23 05:17:03;;;;;;;3.38;2.75;;;;;14.20;95768.00;;;;8294593;28;20558;-76
2023/04/23 05:21:06;;;;;;;5.22;2.67;;;;;14.20;95764.00;;;;8318412;28;20258;-75
2023/04/23 05:25:18;;;;;;;3.70;2.47;;;;;14.10;95780.00;;;;8318846;28;20609;-77
2023/04/23 05:29:22;;;;;;;2.40;2.20;;;;;14.00;95777.00;;;;8320363;28;20213;-76
2023/04/23 05:33:26;;;;;;;4.80;2.42;;;;;13.90;95782.00;;;;8316976;28;20251;-76
2023/04/23 05:37:38;;;;;;;4.47;2.40;;;;;13.80;95797.00;;;;8317098;28;20252;-76
2023/04/23 05:41:41;;;;;;;4.00;2.20;;;;;13.50;95792.00;;;;8317518;28;20286;-75
2023/04/23 05:45:46;;;;;;;3.13;2.38;;;;;13.30;95796.00;;;;8318837;28;20225;-75
2023/04/23 05:49:49;;;;;;;3.13;2.35;;;;;13.20;95796.00;;;;8319338;28;20225;-74
2023/04/23 05:54:03;;;;;;;3.25;2.50;;;;;13.00;95795.00;;;;8317816;28;20209;-75
2023/04/23 05:58:08;;;;;;;6.68;2.50;;;;;12.90;95807.00;;;;8311757;28;20226;-73
2023/04/23 06:02:14;;;;;;;5.05;2.65;;;;;12.80;95810.00;;;;8317885;28;20221;-73
2023/04/23 06:06:17;;;;;;;6.20;2.78;;;;;12.80;95810.00;;;;8311704;28;20227;-73
2023/04/23 06:10:24;;;;;;;5.75;2.80;;;;;12.80;95813.00;;;;8317689;28;20262;-72
2023/04/23 06:14:30;;;;;;;7.25;3.35;;;;;12.80;95811.00;;;;8315760;28;20193;-72
2023/04/23 06:18:36;;;;;;;3.67;3.38;;;;;12.90;95814.00;;;;8324180;28;20239;-72
2023/04/23 06:22:40;;;;;;;5.38;3.08;;;;;12.90;95806.00;;;;8322081;28;20261;-73
2023/04/23 06:26:45;;;;;;;5.70;3.30;;;;;12.80;95811.00;;;;8323733;28;20262;-73
2023/04/23 06:30:48;;;;;;;6.05;3.13;;;;;12.90;95813.00;;;;8322122;28;20297;-72
2023/04/23 06:34:52;;;;;;;4.13;3.53;;;;;12.90;95804.00;;;;8323879;28;20205;-74
2023/04/23 06:39:04;;;;;;;6.63;3.30;;;;;12.90;95814.00;;;;8321997;28;20280;-73
2023/04/23 06:43:10;;;;;;;3.67;3.38;;;;;13.00;95805.00;;;;8322725;28;20230;-73
2023/04/23 06:47:14;;;;;;;10.25;4.13;;;;;13.00;95806.00;;;;8319312;28;20204;-73
2023/04/23 06:51:21;;;;;;;7.85;3.60;;;;;13.10;95802.00;;;;8312446;28;20229;-73
2023/04/23 06:55:25;;;;;;;5.00;3.70;;;;;13.10;95798.00;;;;8320259;28;20193;-73
2023/04/23 06:59:32;;;;;;;6.28;3.72;;;;;13.00;95807.00;;;;8322465;28;20208;-73
2023/04/23 07:03:35;;;;;;;5.78;4.05;;;;;13.00;95808.00;;;;8315007;28;20229;-75
2023/04/23 07:07:43;;;;;;;5.40;3.15;;;;;12.90;95808.00;;;;8321984;28;20205;-74
2023/04/23 07:11:49;;;;;;;8.52;3.90;;;;;12.90;95803.00;;;;8323261;28;20247;-74
2023/04/23 07:15:54;;;;;;;4.47;3.40;;;;;12.90;95797.00;;;;8316671;28;20192;-74
2023/04/23 07:20:03;;;;;;;7.05;3.50;;;;;13.00;95791.00;;;;8321722;28;20267;-74
2023/04/23 07:24:10;;;;;;;9.25;3.70;;;;;13.00;95798.00;;;;8321044;28;20209;-74
2023/04/23 07:28:17;;;;;;;6.35;3.00;;;;;13.00;95807.00;;;;8314273;28;20228;-74
2023/04/23 07:32:26;;;;;;;5.72;2.95;;;;;13.10;95804.00;;;;8322290;28;20720;-74
2023/04/23 07:36:34;;;;;;;4.18;3.40;;;;;13.10;95811.00;;;;8320778;28;20204;-74
2023/04/23 07:40:39;;;;;;;11.95;3.70;;;;;13.30;95819.00;;;;8321259;28;20212;-74
2023/04/23 07:44:45;;;;;;;4.85;3.13;;;;;13.40;95825.00;;;;8323135;28;20649;-75
2023/04/23 07:48:49;;;;;;;5.15;3.50;;;;;13.50;95813.00;;;;8322398;28;20757;-75
2023/04/23 07:52:52;;;;;;;4.20;3.58;;;;;13.40;95812.00;;;;8321802;28;20197;-75
2023/04/23 07:57:00;;;;;;;3.75;3.40;;;;;13.40;95825.00;;;;8319491;28;20327;-74
2023/04/23 08:01:05;;;;;;;7.00;3.50;;;;;13.30;95822.00;;;;8315396;28;20213;-74
2023/04/23 08:05:13;;;;;;;6.00;3.47;;;;;13.30;95822.00;;;;8300477;28;20283;-73
2023/04/23 08:09:16;;;;;;;9.82;3.35;;;;;13.30;95816.00;;;;8320507;28;20232;-75
2023/04/23 08:13:22;;;;;;;6.53;3.95;;;;;13.20;95812.00;;;;8319763;28;20585;-73
2023/04/23 08:17:26;;;;;;;5.45;3.33;;;;;13.10;95807.00;;;;8319969;28;20226;-75
2023/04/23 08:21:30;;;;;;;6.85;3.30;;;;;13.10;95802.00;;;;8317503;28;20666;-75
2023/04/23 08:25:33;;;;;;;7.43;3.67;;;;;13.10;95806.00;;;;8319728;28;20189;-73
2023/04/23 08:29:39;;;;;;;3.67;3.22;;;;;13.20;95795.00;;;;8319879;28;20352;-76
2023/04/23 08:33:43;;;;;;;8.23;3.25;;;;;13.20;95792.00;;;;8317977;28;20199;-75
2023/04/23 08:37:46;;;;;;;5.15;3.55;;;;;13.30;95800.00;;;;8311654;28;20212;-74
2023/04/23 08:41:54;;;;;;;6.07;3.60;;;;;13.40;95796.00;;;;8320919;28;20250;-75
2023/04/23 08:46:03;;;;;;;7.80;3.85;;;;;13.50;95800.00;;;;8319797;28;20312;-76
2023/04/23 08:50:08;;;;;;;5.13;3.83;;;;;13.60;95798.00;;;;8299942;28;20220;-76
2023/04/23 08:54:15;;;;;;;4.80;3.50;;;;;13.70;95796.00;;;;8317001;28;20355;-75
2023/04/23 08:58:22;;;;;;;6.35;3.97;;;;;13.70;95792.00;;;;8318287;28;20205;-75
2023/04/23 09:02:32;;;;;;;10.48;4.00;;;;;13.90;95780.00;;;;8310708;28;20970;-75
2023/04/23 09:06:37;;;;;;;5.45;4.03;;;;;14.00;95783.00;;;;8318795;28;20256;-76
2023/04/23 09:10:41;;;;;;;5.38;3.65;;;;;14.30;95787.00;;;;8315173;28;20228;-75
2023/04/23 09:14:46;;;;;;;5.75;3.70;;;;;14.50;95783.00;;;;8318171;28;20198;-75
2023/04/23 09:18:51;;;;;;;6.97;3.80;;;;;14.60;95783.00;;;;8307930;28;20201;-75
2023/04/23 09:22:55;;;;;;;6.63;4.28;;;;;14.90;95777.00;;;;8310746;28;20209;-75
2023/04/23 09:27:03;;;;;;;7.20;3.35;;;;;15.30;95778.00;;;;8305659;28;20239;-75
2023/04/23 09:35:27;;;;;;;3.25;2.95;;;;;15.40;95765.00;;;;8317015;28;20276;-76
2023/04/23 09:39:33;;;;;;;4.32;2.83;;;;;15.30;95766.00;;;;8302807;28;20338;-76
2023/04/23 09:43:43;;;;;;;4.95;2.92;;;;;15.20;95767.00;;;;8316193;28;20228;-76
2023/04/23 09:47:51;;;;;;;3.25;2.67;;;;;15.30;95769.00;;;;8314472;28;20212;-75
2023/04/23 09:51:56;;;;;;;3.33;3.03;;;;;15.30;95787.00;;;;8325144;28;20229;-75
2023/04/23 09:56:00;;;;;;;5.85;3.53;;;;;15.40;95786.00;;;;8323143;28;20198;-75
2023/04/23 10:00:18;;;;;;;6.53;3.20;;;;;15.40;95789.00;;;;8319248;28;20236;-76
2023/04/23 10:04:24;;;;;;;5.22;4.05;;;;;15.30;95793.00;;;;8314767;28;20686;-74
2023/04/23 10:08:31;;;;;;;6.75;3.05;;;;;15.50;95787.00;;;;8321224;28;20301;-74
2023/04/23 10:12:37;;;;;;;4.20;3.80;;;;;15.50;95782.00;;;;8323592;28;20821;-74
2023/04/23 10:16:58;;;;;;;6.97;3.47;;;;;15.40;95777.00;;;;8323579;28;20193;-75
2023/04/23 10:21:05;;;;;;;6.60;4.18;;;;;15.50;95777.00;;;;8319458;28;20206;-74
2023/04/23 10:25:15;;;;;;;8.40;4.97;;;;;15.40;95773.00;;;;8315964;28;20197;-75
2023/04/23 10:29:25;;;;;;;16.73;12.18;;;;;15.40;95772.00;;;;8319916;28;20197;-74
2023/04/23 10:33:31;;;;;;;4.47;2.97;;;;;15.50;95770.00;;;;8312228;28;20229;-74
2023/04/23 10:37:46;;;;;;;2.72;2.45;;;;;15.50;95772.00;;;;8311795;28;20644;-75
2023/04/23 10:41:53;;;;;;;2.95;2.65;;;;;15.70;95772.00;;;;8319924;28;20267;-74
2023/04/23 10:45:56;;;;;;;3.08;2.75;;;;;16.20;95763.00;;;;8316605;28;20256;-75
2023/04/23 10:50:18;;;;;;;2.72;2.50;;;;;16.60;95767.00;;;;8315340;28;20658;-76
2023/04/23 10:54:31;;;;;;;2.45;2.25;;;;;16.70;95769.00;;;;8322627;28;20292;-76
2023/04/23 10:58:51;;;;;;;4.28;2.65;;;;;16.90;95767.00;;;;8314642;28;20197;-76
2023/04/23 11:02:56;;;;;;;2.67;2.47;;;;;17.30;95768.00;;;;8316879;28;20260;-76
2023/04/23 11:07:06;;;;;;;2.70;2.58;;;;;17.60;95756.00;;;;8317778;28;20201;-74
2023/04/23 11:11:10;;;;;;;4.97;2.50;;;;;18.00;95761.00;;;;8295613;28;20336;-75
2023/04/23 11:15:19;;;;;;;2.65;2.00;;;;;18.40;95752.00;;;;8303567;28;20212;-76
2023/04/23 11:19:23;;;;;;;2.58;2.38;;;;;19.10;95747.00;;;;8319863;28;20279;-75
2023/04/23 11:23:34;;;;;;;4.80;2.10;;;;;19.60;95746.00;;;;8317419;28;20670;-75
2023/04/23 11:27:39;;;;;;;1.98;1.88;;;;;20.20;95737.00;;;;8316774;28;20201;-75
2023/04/23 11:31:46;;;;;;;2.65;2.08;;;;;20.40;95733.00;;;;8317778;28;20275;-74
2023/04/23 11:36:06;;;;;;;2.28;1.80;;;;;20.50;95735.00;;;;8318609;28;20774;-74
2023/04/23 11:40:12;;;;;;;1.95;1.85;;;;;20.80;95717.00;;;;8322139;28;20197;-75
2023/04/23 11:44:18;;;;;;;1.98;1.88;;;;;21.00;95706.00;;;;8317997;28;20317;-74
2023/04/23 11:48:26;;;;;;;1.95;1.85;;;;;21.20;95685.00;;;;8319492;28;20316;-74
2023/04/23 11:52:29;;;;;;;1.67;1.58;;;;;21.60;95685.00;;;;8320427;28;20797;-74
2023/04/23 11:56:36;;;;;;;2.00;1.90;;;;;22.10;95685.00;;;;8307317;28;20801;-74
2023/04/23 12:00:40;;;;;;;4.30;1.88;;;;;22.20;95681.00;;;;8317748;28;20212;-74
2023/04/23 12:04:44;;;;;;;2.83;1.70;;;;;22.10;95679.00;;;;8319325;28;20233;-74
2023/04/23 12:08:48;;;;;;;1.98;1.88;;;;;22.10;95689.00;;;;8318715;28;20292;-74
2023/04/23 12:12:58;;;;;;;1.67;1.60;;;;;22.60;95689.00;;;;8314948;28;20710;-73
2023/04/23 12:17:10;;;;;;;2.03;1.88;;;;;22.60;95688.00;;;;8319049;28;20189;-73
2023/04/23 12:21:18;;;;;;;1.50;1.50;;;;;22.50;95693.00;;;;8313297;28;20689;-73
2023/04/23 12:25:25;;;;;;;1.80;1.70;;;;;22.50;95680.00;;;;8317723;28;20197;-73
2023/04/23 12:29:30;;;;;;;2.28;1.85;;;;;22.50;95676.00;;;;8316770;28;20220;-73
2023/04/23 12:33:33;;;;;;;2.75;2.28;;;;;22.50;95671.00;;;;8319416;28;20231;-73
2023/04/23 12:37:37;;;;;;;2.40;2.15;;;;;22.40;95659.00;;;;8308338;28;20232;-73
2023/04/23 12:41:40;;;;;;;2.38;1.92;;;;;22.40;95658.00;;;;8303440;28;20206;-74
2023/04/23 12:45:44;;;;;;;2.05;1.90;;;;;22.40;95660.00;;;;8311732;28;20232;-74
2023/04/23 12:49:51;;;;;;;2.00;1.90;;;;;22.50;95650.00;;;;8307471;28;20732;-73
2023/04/23 12:53:59;;;;;;;2.42;2.10;;;;;22.30;95649.00;;;;8319731;28;20959;-74
2023/04/23 12:58:03;;;;;;;3.72;2.15;;;;;22.20;95657.00;;;;8315893;28;20540;-73
2023/04/23 13:02:10;;;;;;;2.00;1.90;;;;;22.20;95645.00;;;;8315923;28;20232;-73
2023/04/23 13:06:14;;;;;;;2.20;2.10;;;;;22.40;95633.00;;;;8318035;28;20205;-74
2023/04/23 13:10:19;;;;;;;2.50;2.40;;;;;22.20;95637.00;;;;8317192;28;20479;-74
2023/04/23 13:14:22;;;;;;;2.88;2.60;;;;;22.30;95631.00;;;;8298474;28;20229;-74
2023/04/23 13:18:27;;;;;;;3.20;2.05;;;;;22.40;95615.00;;;;8310760;28;20194;-74
2023/04/23 13:22:33;;;;;;;2.30;2.20;;;;;22.20;95600.00;;;;8293807;28;20643;-74
2023/04/23 13:26:40;;;;;;;2.42;2.22;;;;;22.10;95595.00;;;;8303695;28;20261;-75
2023/04/23 13:30:43;;;;;;;2.15;2.05;;;;;22.10;95589.00;;;;8311666;28;20251;-74
2023/04/23 13:34:48;;;;;;;3.22;1.98;;;;;22.50;95580.00;;;;8312314;28;20202;-74
2023/04/23 13:38:53;;;;;;;3.78;2.15;;;;;23.00;95567.00;;;;8310934;28;20733;-73
2023/04/23 13:43:14;;;;;;;2.20;2.10;;;;;23.10;95566.00;;;;8308075;28;20202;-73
2023/04/23 13:47:18;;;;;;;3.55;1.63;;;;;24.20;95558.00;;;;8295623;28;20197;-73
2023/04/23 13:51:21;;;;;;;1.80;1.70;;;;;25.30;95547.00;;;;8308680;28;20302;-74
2023/04/23 13:55:40;;;;;;;2.00;1.90;;;;;26.10;95537.00;;;;8315404;28;20209;-74
2023/04/23 13:59:47;;;;;;;1.98;1.52;;;;;26.50;95536.00;;;;8317656;28;20247;-74
2023/04/23 14:03:54;;;;;;;2.00;1.90;;;;;26.70;95523.00;;;;8312993;28;20259;-74
2023/04/23 14:08:01;;;;;;;2.38;1.67;;;;;26.90;95525.00;;;;8315414;28;20637;-73
2023/04/23 14:12:07;;;;;;;2.92;2.00;;;;;26.80;95523.00;;;;8315208;28;20263;-73
2023/04/23 14:16:12;;;;;;;1.80;1.60;;;;;26.90;95511.00;;;;8316461;28;20259;-74
2023/04/23 14:20:21;;;;;;;1.50;1.50;;;;;26.80;95507.00;;;;8314962;28;20212;-74
2023/04/23 14:24:28;;;;;;;1.52;1.52;;;;;26.40;95513.00;;;;8301904;28;20194;-73
2023/04/23 14:28:44;;;;;;;1.90;1.80;;;;;25.90;95507.00;;;;8316249;28;20685;-73
2023/04/23 14:32:53;;;;;;;1.80;1.70;;;;;26.40;95509.00;;;;8312018;28;20295;-73
2023/04/23 14:36:57;;;;;;;1.90;1.80;;;;;26.40;95506.00;;;;8320275;28;20202;-73
2023/04/23 14:41:03;;;;;;;2.00;1.90;;;;;25.60;95496.00;;;;8314433;28;20270;-73
2023/04/23 14:45:07;;;;;;;1.92;1.83;;;;;25.70;95483.00;;;;8322525;28;20216;-73
2023/04/23 14:49:14;;;;;;;1.73;1.60;;;;;26.10;95477.00;;;;8318428;28;20647;-74
2023/04/23 14:53:20;;;;;;;3.47;1.88;;;;;26.30;95471.00;;;;8323466;28;20294;-74
2023/04/23 14:57:34;;;;;;;1.50;1.50;;;;;26.00;95480.00;;;;8319766;28;20263;-74
2023/04/23 15:01:42;;;;;;;1.67;1.58;;;;;25.50;95476.00;;;;8322687;28;20232;-73
2023/04/23 15:05:46;;;;;;;3.35;1.65;;;;;25.20;95469.00;;;;8296418;28;20229;-76
2023/04/23 15:09:51;;;;;;;2.08;1.65;;;;;25.00;95461.00;;;;8309341;28;20198;-76
2023/04/23 15:14:03;;;;;;;1.75;1.75;;;;;24.40;95450.00;;;;8308638;28;20694;-76
2023/04/23 15:18:10;;;;;;;2.08;1.80;;;;;24.10;95444.00;;;;8305397;28;20624;-74
2023/04/23 15:22:15;;;;;;;1.90;1.80;;;;;24.30;95438.00;;;;8314912;28;20251;-75
2023/04/23 15:26:20;;;;;;;3.38;1.77;;;;;24.50;95430.00;;;;8319527;28;20204;-74
2023/04/23 15:30:26;;;;;;;1.60;1.60;;;;;24.50;95425.00;;;;8319449;28;20201;-75
2023/04/23 15:34:30;;;;;;;1.80;1.70;;;;;24.50;95424.00;;;;8319191;28;20229;-74
2023/04/23 15:38:35;;;;;;;5.93;1.60;;;;;24.70;95409.00;;;;8320664;28;20769;-75
2023/04/23 15:42:41;;;;;;;1.50;1.50;;;;;24.90;95408.00;;;;8316640;28;20216;-74
2023/04/23 15:46:44;;;;;;;1.52;1.40;;;;;24.90;95407.00;;;;8318151;28;20206;-75
2023/04/23 15:50:52;;;;;;;1.80;1.67;;;;;24.90;95397.00;;;;8315093;28;20322;-75
2023/04/23 15:54:56;;;;;;;1.67;1.55;;;;;25.00;95393.00;;;;8317221;28;20256;-75
2023/04/23 15:59:01;;;;;;;3.20;2.20;;;;;25.20;95386.00;;;;8319037;28;20189;-75
2023/04/23 16:03:07;;;;;;;6.05;3.92;;;;;25.20;95374.00;;;;8318090;28;20653;-75
2023/04/23 16:07:10;;;;;;;13.60;6.68;;;;;25.20;95371.00;;;;8316317;28;20589;-74
2023/04/23 16:11:15;;;;;;;19.65;9.82;;;;;25.10;95375.00;;;;8315620;28;20198;-75
2023/04/23 16:15:21;;;;;;;2.65;2.15;;;;;25.20;95371.00;;;;8316406;28;20678;-76
2023/04/23 16:19:25;;;;;;;2.22;1.90;;;;;25.30;95371.00;;;;8315871;28;20232;-76
2023/04/23 16:23:28;;;;;;;1.80;1.70;;;;;25.40;95371.00;;;;8313638;28;20193;-76
2023/04/23 16:27:33;;;;;;;1.80;1.70;;;;;25.50;95368.00;;;;8316794;28;20194;-75
2023/04/23 16:31:37;;;;;;;1.77;1.70;;;;;25.50;95369.00;;;;8317116;28;20251;-75
2023/04/23 16:35:40;;;;;;;2.17;1.65;;;;;25.40;95360.00;;;;8318204;28;20232;-76
2023/04/23 16:39:45;;;;;;;2.05;1.95;;;;;25.40;95362.00;;;;8318482;28;20228;-76
2023/04/23 16:43:50;;;;;;;3.83;1.83;;;;;25.20;95361.00;;;;8314612;28;20201;-75
2023/04/23 16:47:55;;;;;;;2.55;2.30;;;;;24.80;95360.00;;;;8308558;28;20881;-74
2023/04/23 16:52:00;;;;;;;2.90;2.53;;;;;24.20;95358.00;;;;8318506;28;20768;-75
2023/04/23 16:56:04;;;;;;;3.42;2.80;;;;;23.50;95363.00;;;;8314495;28;20208;-75
2023/04/23 17:00:14;;;;;;;4.90;3.97;;;;;22.70;95360.00;;;;8311113;28;20573;-74
2023/04/23 17:04:20;;;;;;;6.70;4.80;;;;;22.00;95370.00;;;;8314328;28;20218;-75
2023/04/23 17:08:28;;;;;;;5.10;3.67;;;;;21.50;95350.00;;;;8313441;28;20205;-76
2023/04/23 17:12:31;;;;;;;6.18;4.72;;;;;21.00;95353.00;;;;8314208;28;20233;-77
2023/04/23 17:16:35;;;;;;;12.82;7.60;;;;;20.70;95345.00;;;;8315177;28;20251;-77
2023/04/23 17:20:44;;;;;;;16.00;8.85;;;;;20.40;95335.00;;;;8314183;28;20894;-78
2023/04/23 17:24:50;;;;;;;9.25;6.35;;;;;20.10;95333.00;;;;8295658;28;20676;-76
2023/04/23 17:28:55;;;;;;;10.23;6.65;;;;;19.90;95328.00;;;;8313671;28;21134;-77
2023/04/23 17:33:02;;;;;;;11.07;6.35;;;;;19.70;95317.00;;;;8289633;28;20759;-77
2023/04/23 17:37:16;;;;;;;10.20;6.25;;;;;19.40;95316.00;;;;8306571;28;20193;-76
2023/04/23 17:41:21;;;;;;;9.13;5.78;;;;;19.20;95316.00;;;;8304562;28;20193;-76
2023/04/23 17:45:28;;;;;;;3.65;3.33;;;;;19.00;95306.00;;;;8306820;28;20194;-76
2023/04/23 17:49:32;;;;;;;4.53;3.55;;;;;18.70;95308.00;;;;8308858;28;20671;-77
2023/04/23 17:53:37;;;;;;;4.38;3.00;;;;;18.50;95295.00;;;;8310070;28;20315;-76
2023/04/23 17:57:43;;;;;;;3.70;3.40;;;;;18.30;95289.00;;;;8309609;28;20197;-76
2023/04/23 18:01:46;;;;;;;4.82;3.60;;;;;18.00;95290.00;;;;8311092;28;20209;-76
2023/04/23 18:05:51;;;;;;;4.45;3.17;;;;;17.80;95296.00;;;;8298609;28;20639;-76
2023/04/23 18:09:54;;;;;;;3.38;3.10;;;;;17.70;95300.00;;;;8311590;28;20214;-76
2023/04/23 18:13:58;;;;;;;5.00;3.80;;;;;17.50;95300.00;;;;8313912;28;20275;-75
2023/04/23 18:18:02;;;;;;;5.72;3.53;;;;;17.30;95315.00;;;;8315749;28;20279;-76
2023/04/23 18:22:07;;;;;;;5.35;3.83;;;;;17.20;95313.00;;;;8316033;28;20217;-76
2023/04/23 18:26:10;;;;;;;4.65;4.05;;;;;17.10;95313.00;;;;8300806;28;20729;-76
2023/04/23 18:30:21;;;;;;;3.95;3.58;;;;;17.00;95314.00;;;;8306004;28;20208;-77
2023/04/23 18:34:29;;;;;;;6.72;4.00;;;;;16.90;95312.00;;;;8307312;28;20324;-76
2023/04/23 18:38:43;;;;;;;5.63;4.07;;;;;16.80;95308.00;;;;8313738;28;20204;-76
2023/04/23 18:42:52;;;;;;;9.27;4.93;;;;;16.70;95303.00;;;;8317323;28;20284;-76
2023/04/23 18:46:55;;;;;;;4.85;4.03;;;;;16.60;95292.00;;;;8307352;28;20193;-77
2023/04/23 18:51:03;;;;;;;7.85;3.95;;;;;16.60;95300.00;;;;8313984;28;20618;-76
2023/04/23 18:55:10;;;;;;;5.80;3.85;;;;;16.60;95302.00;;;;8308324;28;20225;-78
2023/04/23 18:59:14;;;;;;;4.07;3.55;;;;;16.50;95284.00;;;;8293267;28;20197;-79
2023/04/23 19:03:19;;;;;;;5.90;4.30;;;;;16.50;95290.00;;;;8314775;28;21185;-78
2023/04/23 19:07:29;;;;;;;5.32;4.00;;;;;16.50;95292.00;;;;8312186;28;20827;-78
2023/04/23 19:11:34;;;;;;;5.45;4.18;;;;;16.40;95286.00;;;;8312548;28;20247;-80
2023/04/23 19:15:40;;;;;;;6.60;3.85;;;;;16.40;95288.00;;;;8310694;28;20796;-75
2023/04/23 19:19:45;;;;;;;7.53;4.65;;;;;16.40;95299.00;;;;8312849;28;20228;-75
2023/04/23 19:23:50;;;;;;;5.80;4.05;;;;;16.40;95301.00;;;;8311453;28;20861;-78
2023/04/23 19:27:55;;;;;;;7.85;4.70;;;;;16.30;95313.00;;;;8309005;28;20271;-77
2023/04/23 19:31:59;;;;;;;8.00;4.82;;;;;16.30;95320.00;;;;8312466;28;20301;-77
2023/04/23 19:36:03;;;;;;;6.20;4.00;;;;;16.30;95320.00;;;;8309705;28;20291;-77
2023/04/23 19:40:08;;;;;;;7.63;4.50;;;;;16.30;95336.00;;;;8314031;28;20213;-76
2023/04/23 19:44:15;;;;;;;4.10;3.65;;;;;16.30;95336.00;;;;8313392;28;20206;-76
2023/04/23 19:48:25;;;;;;;6.28;4.97;;;;;16.20;95352.00;;;;8317522;28;20605;-76
2023/04/23 19:52:29;;;;;;;7.20;4.50;;;;;16.10;95402.00;;;;8296619;28;20198;-78
2023/04/23 19:56:35;;;;;;;2.42;2.22;;;;;15.60;95421.00;;;;8312123;28;20820;-80
2023/04/23 20:00:39;;;;;;;3.60;2.15;;;;;14.50;95442.00;;;;8319865;28;20213;-73
2023/04/23 20:04:44;;;;;;;5.15;1.50;;;;;13.50;95453.00;;;;8313779;28;20225;-72
2023/04/23 20:09:06;;;;;;;3.03;1.50;;;;;12.70;95440.00;;;;8306367;28;20693;-76
2023/04/23 20:13:17;;;;;;;6.53;1.58;;;;;12.20;95421.00;;;;8310935;28;20197;-75
2023/04/23 20:17:25;;;;;;;1.77;1.60;;;;;11.90;95413.00;;;;8316269;28;20969;-74
2023/04/23 20:21:28;;;;;;;5.18;2.10;;;;;11.70;95397.00;;;;8320150;28;20644;-74
2023/04/23 20:25:32;;;;;;;3.08;1.40;;;;;11.60;95412.00;;;;8317916;28;20206;-73
2023/04/23 20:29:35;;;;;;;2.83;1.33;;;;;11.60;95406.00;;;;8317576;28;20224;-74
2023/04/23 20:33:44;;;;;;;4.38;1.60;;;;;11.60;95405.00;;;;8312492;28;20292;-75